Accueil
METAR-TAF:

METAR-TAF

Aéroports :

Base aérienne 107 Villacoublay

Villacoublay, France

latitude: 48-46N, longitude: 002-12E, altitude: 177 m

Observation

Le bulletin a été fait il y a 12 minutes, à 18:00 UTC
Vent 3 kt de direction variable
Température 25°C
Humidité 47%
Pression 1019 hPa
Visibilité 10 km ou plus
pas de nuages en-dessous de 1500 mètres et pas de cumulonimbus.

METAR: LFPV 151800Z AUTO VRB03KT CAVOK 25/13 Q1019 NOSIG

Heure: 20:12 (18:12 UTC)

Prévision

Le bulletin a été fait il y a 4 heures et 12 minutes, à 14:00 UTC
Prévision valable du 15 à 15 UTC au 16 à 15 UTC
Vent 10 kt de sud-ouest
Visibilité 10 km ou plus
pas de nuages en-dessous de 1500 mètres et pas de cumulonimbus.

TAF: LFPV 151400Z 1515/1615 22010KT CAVOK

Observations et prévisions météorologiques de plus de 4000 aéroports (messages METAR et TAF).

Les stations disponibles sont représentées par des disques jaunes et rouges sur la carte.

Passer la souris dessus pour voir le nom de la station.

Cliquer dessus pour voir les observations et prévisions météorologiques.

Pour changer de carte: cliquez sur les boutons verts avec une croix noire pour zoomer, sur le bouton vert avec un tiret pour effectuer un zoom arrière, ou sur les flèches vertes pour les cartes adjacentes.


METAR-TAF: